createdAt,value
2018-07-16T00:00:52.007Z,72.56
2018-07-16T00:01:51.818Z,73.24
2018-07-16T00:02:51.918Z,73.72
2018-07-16T00:03:51.780Z,73.52
2018-07-16T00:04:51.933Z,73.24
2018-07-16T00:05:51.738Z,73.81
2018-07-16T00:06:51.845Z,73.43
2018-07-16T00:07:51.700Z,73.33
2018-07-16T00:08:51.854Z,73.62
2018-07-16T00:09:51.658Z,73.43
2018-07-16T00:10:51.772Z,74.19
2018-07-16T00:11:51.616Z,73.43
2018-07-16T00:12:51.785Z,73.91
2018-07-16T00:13:51.576Z,73.81
2018-07-16T00:14:51.694Z,73.52
2018-07-16T00:15:51.534Z,73.24
2018-07-16T00:16:51.711Z,73.43
2018-07-16T00:17:51.499Z,73.62
2018-07-16T00:18:51.624Z,73.43
2018-07-16T00:19:51.453Z,73.72
2018-07-16T00:20:51.540Z,73.39
2018-07-16T00:21:51.403Z,73.49
2018-07-16T00:22:51.564Z,74.29
2018-07-16T00:23:51.373Z,73.49
2018-07-16T00:24:51.468Z,73.77
2018-07-16T00:25:51.326Z,73.97
2018-07-16T00:26:51.479Z,73.49
2018-07-16T00:27:51.287Z,74.54
2018-07-16T00:28:51.392Z,74.26
2018-07-16T00:29:51.244Z,74.44
2018-07-16T00:30:51.407Z,74.26
2018-07-16T00:31:51.204Z,74.83
2018-07-16T00:32:51.317Z,74.35
2018-07-16T00:33:51.168Z,74.83
2018-07-16T00:34:51.324Z,74.64
2018-07-16T00:35:51.127Z,75.12
2018-07-16T00:36:51.244Z,75.31
2018-07-16T00:37:51.079Z,75.31
2018-07-16T00:38:51.259Z,75.70
2018-07-16T00:39:51.035Z,75.98
2018-07-16T00:40:51.171Z,75.70
2018-07-16T00:41:50.996Z,75.50
2018-07-16T00:42:51.185Z,75.50
2018-07-16T00:43:50.954Z,76.27
2018-07-16T00:44:51.095Z,76.75
2018-07-16T00:45:50.915Z,75.89
2018-07-16T00:46:51.006Z,75.70
2018-07-16T00:47:50.869Z,76.75
2018-07-16T00:48:50.910Z,76.65
2018-07-16T00:49:50.830Z,76.84
2018-07-16T00:50:50.932Z,76.37
2018-07-16T00:51:50.788Z,76.75
2018-07-16T00:52:50.843Z,76.56
2018-07-16T00:53:50.753Z,76.37
2018-07-16T00:54:50.856Z,76.56
2018-07-16T00:55:50.813Z,76.32
2018-07-16T00:56:50.768Z,76.62
2018-07-16T00:57:50.660Z,76.71
2018-07-16T00:58:50.680Z,76.62
2018-07-16T00:59:50.617Z,76.62
2018-07-16T01:00:50.695Z,77.29
2018-07-16T01:01:50.574Z,77.19
2018-07-16T01:02:50.606Z,77.38
2018-07-16T01:03:50.538Z,77.00
2018-07-16T01:04:50.617Z,77.00
2018-07-16T01:05:50.497Z,77.19
2018-07-16T01:06:50.531Z,78.05
2018-07-16T01:07:50.450Z,77.48
2018-07-16T01:08:50.542Z,77.67
2018-07-16T01:09:50.408Z,77.09
2018-07-16T01:10:50.456Z,77.29
2018-07-16T01:11:50.368Z,76.81
2018-07-16T01:12:50.471Z,76.71
2018-07-16T01:13:50.329Z,77.29
2018-07-16T01:14:50.382Z,77.86
2018-07-16T01:15:50.278Z,77.19
2018-07-16T01:16:50.396Z,77.19
2018-07-16T01:17:50.241Z,77.29
2018-07-16T01:18:50.309Z,77.95
2018-07-16T01:19:50.201Z,78.15
2018-07-16T01:20:50.322Z,78.44
2018-07-16T01:21:50.156Z,78.34
2018-07-16T01:22:50.235Z,77.86
2018-07-16T01:23:50.110Z,77.76
2018-07-16T01:24:50.146Z,77.67
2018-07-16T01:25:50.063Z,78.05
2018-07-16T01:26:50.158Z,78.44
2018-07-16T01:27:50.034Z,78.25
2018-07-16T01:28:50.068Z,78.40
2018-07-16T01:29:49.976Z,79.16
2018-07-16T01:30:50.083Z,78.78
2018-07-16T01:31:49.940Z,78.59
2018-07-16T01:32:50.000Z,78.40
2018-07-16T01:33:49.900Z,78.11
2018-07-16T01:34:50.017Z,78.59
2018-07-16T01:35:49.856Z,78.40
2018-07-16T01:36:49.926Z,78.40
2018-07-16T01:37:49.809Z,78.20
2018-07-16T01:38:49.935Z,78.30
2018-07-16T01:39:49.770Z,78.20
2018-07-16T01:40:49.851Z,78.30
2018-07-16T01:41:49.739Z,78.59
2018-07-16T01:42:49.860Z,78.78
2018-07-16T01:43:49.685Z,78.40
2018-07-16T01:44:49.772Z,79.26
2018-07-16T01:45:49.641Z,79.55
2018-07-16T01:46:49.784Z,79.26
2018-07-16T01:47:49.601Z,78.59
2018-07-16T01:48:49.700Z,78.97
2018-07-16T01:49:49.558Z,79.07
2018-07-16T01:50:49.615Z,79.26
2018-07-16T01:51:49.511Z,79.36
2018-07-16T01:52:49.620Z,78.97
2018-07-16T01:53:49.476Z,78.88
2018-07-16T01:54:49.536Z,79.83
2018-07-16T01:55:49.428Z,79.64
2018-07-16T01:56:49.548Z,79.83
2018-07-16T01:57:49.388Z,79.26
2018-07-16T01:58:49.468Z,78.88
2018-07-16T01:59:49.342Z,79.26
2018-07-16T02:00:49.495Z,79.16
2018-07-16T02:01:49.300Z,79.51
2018-07-16T02:02:49.387Z,79.51
2018-07-16T02:03:49.275Z,78.93
2018-07-16T02:04:49.401Z,78.84
2018-07-16T02:05:49.214Z,79.07
2018-07-16T02:06:49.318Z,79.32
2018-07-16T02:07:49.169Z,79.74
2018-07-16T02:08:49.333Z,80.03
2018-07-16T02:09:49.125Z,80.47
2018-07-16T02:10:49.248Z,79.99
2018-07-16T02:11:49.082Z,80.12
2018-07-16T02:12:49.262Z,80.56
2018-07-16T02:13:49.038Z,79.99
2018-07-16T02:14:49.165Z,80.08
2018-07-16T02:15:48.996Z,79.89
2018-07-16T02:16:49.081Z,79.89
2018-07-16T02:17:48.954Z,80.66
2018-07-16T02:18:49.100Z,80.76
2018-07-16T02:19:48.912Z,80.27
2018-07-16T02:20:49.010Z,80.37
2018-07-16T02:21:48.874Z,79.89
2018-07-16T02:22:49.024Z,80.85
2018-07-16T02:23:48.824Z,81.13
2018-07-16T02:24:48.935Z,80.47
2018-07-16T02:25:48.781Z,80.66
2018-07-16T02:26:48.942Z,80.37
2018-07-16T02:27:48.736Z,80.47
2018-07-16T02:28:48.863Z,80.66
2018-07-16T02:29:48.695Z,80.66
2018-07-16T02:30:48.879Z,80.18
2018-07-16T02:31:48.650Z,81.43
2018-07-16T02:32:48.788Z,81.52
2018-07-16T02:33:48.609Z,81.62
2018-07-16T02:34:48.801Z,80.85
2018-07-16T02:35:48.568Z,80.94
2018-07-16T02:36:48.715Z,81.04
2018-07-16T02:37:48.519Z,81.13
2018-07-16T02:38:48.629Z,81.62
2018-07-16T02:39:48.476Z,81.62
2018-07-16T02:40:48.641Z,81.62
2018-07-16T02:41:48.438Z,82.19
2018-07-16T02:42:48.452Z,81.81
2018-07-16T02:43:48.390Z,81.81
2018-07-16T02:44:48.522Z,82.29
2018-07-16T02:45:48.343Z,81.81
2018-07-16T02:46:48.375Z,81.43
2018-07-16T02:47:48.308Z,81.90
2018-07-16T02:48:48.390Z,81.52
2018-07-16T02:49:48.259Z,80.94
2018-07-16T02:50:48.302Z,81.43
2018-07-16T02:51:48.226Z,81.62
2018-07-16T02:52:48.316Z,81.71
2018-07-16T02:53:48.202Z,81.52
2018-07-16T02:54:48.229Z,81.90
2018-07-16T02:55:48.120Z,81.86
2018-07-16T02:56:48.138Z,81.90
2018-07-16T02:57:48.082Z,82.29
2018-07-16T02:58:48.154Z,81.77
2018-07-16T02:59:48.049Z,82.06
2018-07-16T03:00:48.065Z,82.24
2018-07-16T03:01:47.992Z,81.90
2018-07-16T03:02:48.080Z,82.00
2018-07-16T03:03:47.956Z,81.96
2018-07-16T03:04:47.993Z,82.67
2018-07-16T03:05:47.917Z,82.67
2018-07-16T03:06:48.006Z,82.24
2018-07-16T03:07:47.874Z,81.86
2018-07-16T03:08:47.918Z,82.15
2018-07-16T03:09:47.825Z,82.82
2018-07-16T03:10:47.932Z,83.11
2018-07-16T03:11:47.771Z,82.06
2018-07-16T03:12:47.846Z,82.06
2018-07-16T03:13:47.735Z,82.82
2018-07-16T03:14:47.857Z,83.59
2018-07-16T03:15:47.690Z,83.11
2018-07-16T03:16:47.770Z,82.92
2018-07-16T03:17:47.664Z,83.01
2018-07-16T03:18:47.682Z,82.73
2018-07-16T03:19:47.604Z,82.92
2018-07-16T03:20:47.695Z,82.73
2018-07-16T03:21:47.578Z,82.73
2018-07-16T03:22:47.608Z,82.92
2018-07-16T03:23:47.531Z,82.63
2018-07-16T03:24:47.621Z,83.11
2018-07-16T03:25:47.462Z,82.82
2018-07-16T03:26:47.549Z,83.49
2018-07-16T03:27:47.427Z,82.63
2018-07-16T03:28:47.546Z,83.59
2018-07-16T03:29:47.376Z,83.49
2018-07-16T03:30:47.474Z,83.49
2018-07-16T03:31:47.346Z,83.78
2018-07-16T03:32:47.487Z,83.39
2018-07-16T03:33:47.290Z,83.68
2018-07-16T03:34:47.398Z,83.49
2018-07-16T03:35:47.247Z,83.01
2018-07-16T03:36:47.412Z,83.49
2018-07-16T03:37:47.206Z,84.06
2018-07-16T03:38:47.314Z,83.97
2018-07-16T03:39:47.166Z,83.49
2018-07-16T03:40:47.234Z,83.30
2018-07-16T03:41:47.122Z,83.49
2018-07-16T03:45:50.563Z,83.59
2018-07-16T03:46:50.360Z,83.49
2018-07-16T03:48:43.520Z,83.30
2018-07-16T03:49:43.321Z,83.30
2018-07-16T03:51:36.310Z,83.87
2018-07-16T03:52:36.455Z,83.68
2018-07-16T03:54:29.503Z,84.06
2018-07-16T03:55:29.231Z,83.87
2018-07-16T03:57:22.405Z,84.45
2018-07-16T03:58:22.187Z,84.45
2018-07-16T04:00:15.341Z,84.74
2018-07-16T04:01:15.142Z,84.26
2018-07-16T04:03:08.306Z,84.16
2018-07-16T04:04:08.098Z,83.87
2018-07-16T04:06:01.182Z,84.16
2018-07-16T04:07:01.054Z,84.64
2018-07-16T04:08:54.203Z,84.45
2018-07-16T04:09:54.004Z,84.64
2018-07-16T04:11:47.161Z,84.06
2018-07-16T04:12:46.969Z,84.45
2018-07-16T04:14:40.118Z,84.83
2018-07-16T04:15:39.918Z,84.92
2018-07-16T04:17:33.072Z,84.83
2018-07-16T04:18:32.875Z,85.02
2018-07-16T04:20:26.029Z,85.02
2018-07-16T04:21:25.831Z,84.74
2018-07-16T04:23:18.985Z,84.74
2018-07-16T04:24:18.787Z,84.64
2018-07-16T04:26:11.940Z,84.83
2018-07-16T04:27:11.741Z,84.26
2018-07-16T04:29:04.895Z,84.26
2018-07-16T04:30:04.698Z,84.16
2018-07-16T04:31:57.690Z,84.16
2018-07-16T04:32:57.835Z,84.16
2018-07-16T04:34:51.317Z,83.78
2018-07-16T04:35:51.121Z,84.26
2018-07-16T04:37:44.274Z,84.49
2018-07-16T04:38:44.075Z,84.68
2018-07-16T04:40:37.126Z,84.39
2018-07-16T04:41:37.034Z,84.49
2018-07-16T04:43:30.183Z,84.39
2018-07-16T04:44:30.089Z,84.39
2018-07-16T04:46:23.141Z,84.88
2018-07-16T04:47:23.050Z,84.58
2018-07-16T04:49:16.002Z,84.97
2018-07-16T04:50:15.901Z,84.49
2018-07-16T04:52:08.861Z,84.20
2018-07-16T04:53:08.753Z,84.49
2018-07-16T04:55:01.699Z,83.63
2018-07-16T04:56:01.615Z,84.11
2018-07-16T04:57:54.662Z,84.68
2018-07-16T04:58:54.565Z,84.78
2018-07-16T05:00:47.512Z,84.34
2018-07-16T05:01:47.415Z,84.34
2018-07-16T05:03:40.464Z,83.48
2018-07-16T05:04:40.367Z,83.95
2018-07-16T05:06:33.440Z,83.86
2018-07-16T05:07:33.324Z,83.86
2018-07-16T05:09:26.378Z,82.90
2018-07-16T05:10:26.283Z,82.62
2018-07-16T05:12:19.329Z,82.75
2018-07-16T05:13:19.240Z,83.14
2018-07-16T05:15:12.292Z,82.46
2018-07-16T05:16:12.198Z,82.85
2018-07-16T05:18:05.327Z,81.98
2018-07-16T05:19:05.149Z,81.79
2018-07-16T05:20:58.317Z,81.79
2018-07-16T05:21:58.102Z,81.60
2018-07-16T05:23:51.157Z,81.70
2018-07-16T05:24:51.063Z,81.60
2018-07-16T05:25:51.147Z,81.79
2018-07-16T05:26:51.017Z,81.93
2018-07-16T05:27:51.160Z,81.84
2018-07-16T05:28:50.976Z,81.64
2018-07-16T05:29:51.071Z,81.45
2018-07-16T05:30:50.936Z,81.64
2018-07-16T05:31:51.065Z,81.45
2018-07-16T05:32:50.950Z,81.93
2018-07-16T05:33:50.996Z,81.45
2018-07-16T05:34:50.841Z,81.35
2018-07-16T05:35:50.907Z,81.74
2018-07-16T05:36:50.800Z,81.07
2018-07-16T05:37:50.921Z,81.07
2018-07-16T05:38:50.758Z,81.26
2018-07-16T05:39:50.833Z,80.91
2018-07-16T05:40:50.711Z,80.53
2018-07-16T05:41:50.847Z,80.34
2018-07-16T05:42:50.668Z,80.05
2018-07-16T05:43:50.759Z,80.34
2018-07-16T05:44:50.627Z,79.19
2018-07-16T05:45:50.773Z,79.76
2018-07-16T05:46:50.580Z,79.38
2018-07-16T05:47:50.688Z,78.99
2018-07-16T05:48:50.538Z,78.61
2018-07-16T05:49:50.700Z,78.55
2018-07-16T05:50:50.502Z,79.32
2018-07-16T05:51:50.615Z,78.84
2018-07-16T05:52:50.457Z,78.17
2018-07-16T05:53:50.524Z,78.75
2018-07-16T05:54:50.413Z,78.08
2018-07-16T05:55:50.538Z,78.45
2018-07-16T05:56:50.372Z,77.88
2018-07-16T05:57:50.449Z,78.17
2018-07-16T05:58:50.323Z,77.69
2018-07-16T05:59:50.462Z,77.73
2018-07-16T06:00:50.289Z,77.34
2018-07-16T06:01:50.377Z,77.53
2018-07-16T06:02:50.249Z,77.44
2018-07-16T06:03:50.391Z,76.29
2018-07-16T06:04:50.201Z,76.57
2018-07-16T06:05:50.302Z,76.48
2018-07-16T06:06:50.161Z,76.77
2018-07-16T06:07:50.316Z,76.96
2018-07-16T06:08:50.133Z,76.96
2018-07-16T06:09:50.232Z,76.96
2018-07-16T06:10:50.074Z,76.61
2018-07-16T06:11:50.251Z,77.09
2018-07-16T06:12:50.147Z,77.00
2018-07-16T06:13:50.013Z,77.00
2018-07-16T06:14:50.057Z,76.81
2018-07-16T06:15:49.974Z,76.52
2018-07-16T06:16:49.997Z,77.00
2018-07-16T06:17:49.928Z,77.09
2018-07-16T06:18:49.982Z,77.09
2018-07-16T06:19:49.888Z,77.00
2018-07-16T06:20:49.897Z,76.52
2018-07-16T06:21:49.847Z,77.09
2018-07-16T06:22:49.911Z,77.00
2018-07-16T06:23:49.822Z,76.32
2018-07-16T06:24:49.822Z,76.42
2018-07-16T06:25:49.762Z,76.61
2018-07-16T06:26:49.836Z,76.71
2018-07-16T06:27:49.727Z,76.32
2018-07-16T06:28:49.749Z,76.81
2018-07-16T06:29:49.682Z,76.81
2018-07-16T06:30:49.763Z,76.52
2018-07-16T06:31:49.638Z,76.04
2018-07-16T06:32:49.681Z,76.42
2018-07-16T06:33:49.601Z,76.65
2018-07-16T06:34:49.689Z,76.17
2018-07-16T06:35:49.560Z,76.26
2018-07-16T06:36:49.601Z,76.56
2018-07-16T06:37:49.517Z,76.26
2018-07-16T06:38:49.516Z,76.46
2018-07-16T06:39:49.537Z,75.98
2018-07-16T06:40:49.661Z,76.26
2018-07-16T06:41:49.435Z,76.26
2018-07-16T06:42:49.441Z,75.69
2018-07-16T06:43:49.392Z,75.15
2018-07-16T06:44:49.539Z,75.05
2018-07-16T06:45:49.354Z,75.05
2018-07-16T06:46:49.365Z,75.24
2018-07-16T06:47:49.348Z,74.76
2018-07-16T06:48:49.381Z,74.86
2018-07-16T06:49:49.272Z,74.76
2018-07-16T06:50:49.294Z,75.34
2018-07-16T06:51:49.235Z,75.24
2018-07-16T06:52:49.306Z,74.67
2018-07-16T06:53:49.193Z,74.48
2018-07-16T06:54:49.220Z,74.09
2018-07-16T06:55:49.151Z,74.03
2018-07-16T06:56:49.233Z,74.48
2018-07-16T06:57:49.109Z,74.51
2018-07-16T06:58:49.146Z,74.22
2018-07-16T06:59:49.073Z,74.22
2018-07-16T07:00:49.160Z,73.65
2018-07-16T07:01:49.030Z,73.07
2018-07-16T07:02:49.070Z,72.30
2018-07-16T07:03:49.005Z,73.07
2018-07-16T07:04:49.083Z,72.59
2018-07-16T07:05:48.953Z,73.55
2018-07-16T07:06:48.999Z,73.20
2018-07-16T07:07:48.912Z,73.39
2018-07-16T07:08:49.013Z,73.10
2018-07-16T07:09:48.871Z,72.33
2018-07-16T07:10:48.923Z,73.20
2018-07-16T07:11:48.830Z,72.63
2018-07-16T07:12:48.837Z,71.79
2018-07-16T07:13:48.792Z,71.76
2018-07-16T07:14:48.854Z,71.89
2018-07-16T07:15:48.755Z,71.50
2018-07-16T07:16:48.772Z,71.41
2018-07-16T07:17:48.714Z,71.79
2018-07-16T07:18:48.781Z,71.12
2018-07-16T07:19:48.777Z,71.02
2018-07-16T07:20:48.690Z,70.15
2018-07-16T07:21:48.637Z,68.99
2018-07-16T07:22:48.714Z,69.38
2018-07-16T07:23:48.594Z,69.67
2018-07-16T07:24:48.620Z,70.00
2018-07-16T07:25:48.558Z,69.61
2018-07-16T07:26:48.630Z,68.84
2018-07-16T07:27:48.521Z,68.07
2018-07-16T07:28:48.545Z,68.65
2018-07-16T07:29:48.477Z,69.23
2018-07-16T07:30:48.554Z,69.51
2018-07-16T07:31:48.441Z,69.23
2018-07-16T07:32:48.467Z,69.23
2018-07-16T07:33:48.403Z,69.03
2018-07-16T07:34:48.479Z,68.74
2018-07-16T07:35:48.462Z,68.35
2018-07-16T07:36:48.392Z,69.26
2018-07-16T07:37:48.324Z,69.26
2018-07-16T07:38:48.404Z,68.59
2018-07-16T07:39:48.287Z,68.39
2018-07-16T07:40:48.315Z,68.19
2018-07-16T07:41:48.248Z,67.14
2018-07-16T07:42:48.333Z,66.36
2018-07-16T07:43:48.213Z,66.75
2018-07-16T07:44:48.298Z,67.14
2018-07-16T07:45:48.172Z,67.55
2018-07-16T07:46:48.264Z,67.94
2018-07-16T07:47:48.137Z,66.97
2018-07-16T07:48:48.167Z,65.91
2018-07-16T07:49:48.099Z,66.01
2018-07-16T07:50:48.202Z,63.98
2018-07-16T07:51:48.070Z,64.28
2018-07-16T07:52:48.094Z,65.34
2018-07-16T07:53:48.023Z,64.28
2018-07-16T07:54:48.420Z,64.95
2018-07-16T07:55:48.074Z,63.05
2018-07-16T07:56:48.017Z,62.08
2018-07-16T07:57:47.952Z,61.02
2018-07-16T07:58:48.034Z,59.77
2018-07-16T07:59:47.914Z,59.67
2018-07-16T08:00:47.946Z,60.73
2018-07-16T08:01:47.875Z,61.51
2018-07-16T08:02:48.880Z,61.70
2018-07-16T08:03:47.836Z,60.44
2018-07-16T08:04:47.887Z,60.73
2018-07-16T08:05:47.797Z,62.37
2018-07-16T08:06:47.885Z,60.73
2018-07-16T08:07:47.767Z,61.02
2018-07-16T08:08:47.796Z,60.06
2018-07-16T08:09:47.726Z,59.80
2018-07-16T08:10:47.811Z,60.18
2018-07-16T08:11:47.694Z,59.12
2018-07-16T08:12:47.723Z,59.12
2018-07-16T08:13:47.755Z,59.12
2018-07-16T08:14:47.731Z,59.51
2018-07-16T08:15:47.621Z,60.28
2018-07-16T08:16:47.648Z,58.64
2018-07-16T08:17:47.578Z,58.28
2018-07-16T08:18:47.663Z,59.15
2018-07-16T08:19:47.542Z,61.18
2018-07-16T08:20:47.573Z,60.41
2018-07-16T08:21:47.517Z,59.63
2018-07-16T08:22:47.589Z,60.31
2018-07-16T08:23:47.478Z,60.11
2018-07-16T08:24:47.500Z,59.34
2018-07-16T08:25:47.436Z,59.28
2018-07-16T08:26:47.617Z,60.11
2018-07-16T08:27:47.397Z,58.50
2018-07-16T08:28:47.529Z,59.08
2018-07-16T08:29:47.398Z,58.12
2018-07-16T08:30:47.543Z,57.15
2018-07-16T08:31:47.327Z,55.63
2018-07-16T08:32:47.352Z,55.92
2018-07-16T08:33:47.363Z,55.15
2018-07-16T08:34:47.378Z,54.11
2018-07-16T08:35:47.248Z,55.17
2018-07-16T08:36:47.304Z,55.36
2018-07-16T08:37:47.222Z,54.79
2018-07-16T08:38:47.308Z,55.46
2018-07-16T08:39:47.184Z,55.78
2018-07-16T08:40:47.205Z,54.33
2018-07-16T08:41:47.148Z,55.40
2018-07-16T08:42:47.240Z,53.85
2018-07-16T08:43:47.118Z,53.39
2018-07-16T08:44:47.130Z,52.61
2018-07-16T08:45:47.080Z,53.97
2018-07-16T08:46:47.148Z,53.80
2018-07-16T08:47:47.046Z,53.41
2018-07-16T08:48:47.064Z,52.15
2018-07-16T08:49:47.021Z,51.31
2018-07-16T08:50:47.073Z,53.56
2018-07-16T08:51:46.984Z,50.56
2018-07-16T08:52:47.059Z,50.46
2018-07-16T08:53:46.946Z,50.48
2018-07-16T08:54:46.999Z,49.71
2018-07-16T08:55:46.911Z,48.05
2018-07-16T08:56:46.910Z,48.73
2018-07-16T08:57:46.876Z,48.85
2018-07-16T08:58:46.927Z,46.52
2018-07-16T08:59:46.840Z,45.17
2018-07-16T09:00:46.937Z,46.33
2018-07-16T09:01:46.810Z,45.24
2018-07-16T09:02:46.851Z,46.01
2018-07-16T09:03:46.786Z,44.75
2018-07-16T09:04:46.862Z,48.18
2018-07-16T09:05:46.742Z,49.15
2018-07-16T09:06:46.776Z,46.84
2018-07-16T09:07:46.707Z,44.89
2018-07-16T09:08:46.804Z,45.97
2018-07-16T09:09:46.676Z,45.48
2018-07-16T09:10:46.718Z,45.31
2018-07-16T09:11:46.642Z,47.93
2018-07-16T09:12:46.725Z,46.20
2018-07-16T09:13:46.615Z,45.91
2018-07-16T09:14:46.627Z,45.25
2018-07-16T09:15:46.580Z,43.99
2018-07-16T09:16:46.708Z,44.09
2018-07-16T09:17:46.551Z,43.62
2018-07-16T09:18:46.554Z,44.20
2018-07-16T09:19:46.527Z,45.29
2018-07-16T09:20:46.567Z,44.73
2018-07-16T09:21:46.484Z,42.69
2018-07-16T09:22:46.583Z,40.91
2018-07-16T09:23:46.462Z,40.91
2018-07-16T09:24:46.492Z,41.69
2018-07-16T09:25:46.423Z,41.50
2018-07-16T09:26:46.508Z,43.05
2018-07-16T09:27:46.391Z,42.38
2018-07-16T09:28:46.418Z,41.20
2018-07-16T09:29:46.359Z,42.20
2018-07-16T09:30:46.432Z,43.00
2018-07-16T09:31:46.330Z,40.47
2018-07-16T09:32:46.357Z,40.48
2018-07-16T09:33:46.300Z,36.88
2018-07-16T09:34:46.358Z,38.61
2018-07-16T09:35:46.269Z,37.83
2018-07-16T09:36:46.380Z,38.61
2018-07-16T09:37:46.244Z,39.98
2018-07-16T09:38:46.286Z,39.90
2018-07-16T09:39:46.209Z,37.75
2018-07-16T09:40:46.301Z,39.22
2018-07-16T09:41:46.184Z,38.55
2018-07-16T09:42:46.212Z,39.06
2018-07-16T09:43:46.155Z,38.79
2018-07-16T09:44:46.227Z,38.69
2018-07-16T09:45:46.132Z,38.71
2018-07-16T09:46:46.137Z,37.73
2018-07-16T09:47:46.097Z,37.63
2018-07-16T09:48:46.149Z,36.87
2018-07-16T09:49:46.072Z,37.55
2018-07-16T09:50:46.164Z,37.35
2018-07-16T09:51:46.040Z,35.03
2018-07-16T09:52:46.077Z,34.64
2018-07-16T09:53:46.014Z,34.14
2018-07-16T09:54:46.090Z,33.95
2018-07-16T09:55:45.985Z,33.64
2018-07-16T09:56:46.007Z,36.49
2018-07-16T09:57:45.962Z,35.81
2018-07-16T09:58:46.015Z,35.61
2018-07-16T09:59:45.935Z,34.05
2018-07-16T10:00:46.032Z,36.30
2018-07-16T10:01:45.905Z,35.81
2018-07-16T10:02:45.956Z,34.54
2018-07-16T10:03:45.880Z,32.97
2018-07-16T10:04:45.956Z,33.95
2018-07-16T10:05:45.854Z,33.07
2018-07-16T10:06:45.869Z,33.26
2018-07-16T10:07:45.828Z,33.36
2018-07-16T10:08:45.885Z,34.36
2018-07-16T10:09:45.801Z,32.89
2018-07-16T10:10:45.898Z,34.18
2018-07-16T10:11:45.777Z,35.35
2018-07-16T10:12:45.809Z,31.54
2018-07-16T10:13:45.752Z,31.60
2018-07-16T10:14:45.823Z,32.97
2018-07-16T10:15:45.729Z,34.14
2018-07-16T10:16:45.735Z,34.54
2018-07-16T10:17:45.704Z,33.48
2018-07-16T10:18:45.749Z,34.96
2018-07-16T10:19:45.675Z,32.71
2018-07-16T10:20:45.772Z,31.73
2018-07-16T10:21:45.655Z,31.65
2018-07-16T10:22:45.675Z,31.65
2018-07-16T10:23:45.618Z,31.57
2018-07-16T10:24:45.692Z,32.64
2018-07-16T10:25:45.624Z,30.49
2018-07-16T10:26:45.707Z,32.54
2018-07-16T10:27:45.580Z,30.11
2018-07-16T10:28:45.618Z,29.52
2018-07-16T10:29:45.558Z,29.62
2018-07-16T10:30:45.632Z,30.01
2018-07-16T10:31:45.530Z,29.52
2018-07-16T10:32:45.543Z,31.58
2018-07-16T10:33:45.601Z,30.40
2018-07-16T10:34:45.563Z,31.50
2018-07-16T10:35:45.488Z,30.81
2018-07-16T10:36:45.571Z,31.20
2018-07-16T10:37:45.467Z,31.50
2018-07-16T10:38:45.485Z,32.68
2018-07-16T10:39:45.444Z,33.08
2018-07-16T10:40:45.497Z,32.69
2018-07-16T10:41:45.421Z,31.43
2018-07-16T10:42:45.510Z,31.23
2018-07-16T10:43:45.402Z,28.79
2018-07-16T10:44:45.468Z,28.99
2018-07-16T10:45:45.389Z,29.28
2018-07-16T10:46:45.441Z,27.81
2018-07-16T10:47:45.355Z,29.68
2018-07-16T10:48:45.452Z,28.40
2018-07-16T10:49:45.379Z,26.63
2018-07-16T10:50:45.363Z,28.69
2018-07-16T10:51:45.313Z,27.81
2018-07-16T10:52:45.377Z,30.38
2018-07-16T10:53:45.295Z,28.12
2018-07-16T10:54:45.391Z,25.44
2018-07-16T10:55:45.268Z,25.90
2018-07-16T10:56:45.303Z,26.58
2018-07-16T10:57:45.250Z,28.03
2018-07-16T10:58:45.317Z,29.62
2018-07-16T10:59:45.224Z,27.95
2018-07-16T11:00:45.331Z,27.87
2018-07-16T11:01:45.208Z,27.87
2018-07-16T11:02:45.241Z,27.78
2018-07-16T11:03:45.187Z,25.93
2018-07-16T11:04:45.255Z,25.83
2018-07-16T11:05:45.168Z,28.00
2018-07-16T11:06:45.177Z,30.47
2018-07-16T11:07:45.151Z,27.92
2018-07-16T11:08:45.181Z,27.53
2018-07-16T11:09:45.127Z,29.20
2018-07-16T11:10:45.196Z,28.41
2018-07-16T11:11:45.107Z,28.02
2018-07-16T11:12:45.109Z,29.00
2018-07-16T11:13:45.085Z,29.11
2018-07-16T11:14:45.123Z,28.33
2018-07-16T11:15:45.066Z,25.68
2018-07-16T11:16:45.137Z,25.88
2018-07-16T11:17:45.053Z,25.68
2018-07-16T11:18:45.047Z,25.78
2018-07-16T11:19:45.040Z,26.87
2018-07-16T11:20:45.069Z,28.03
2018-07-16T11:21:45.022Z,28.03
2018-07-16T11:22:45.079Z,25.56
2018-07-16T11:23:44.990Z,27.43
2018-07-16T11:24:45.094Z,27.02
2018-07-16T11:25:44.972Z,26.82
2018-07-16T11:26:45.007Z,27.71
2018-07-16T11:27:44.955Z,26.92
2018-07-16T11:28:45.025Z,27.04
2018-07-16T11:29:44.937Z,25.56
2018-07-16T11:30:45.033Z,25.35
2018-07-16T11:31:44.916Z,25.94
2018-07-16T11:32:44.945Z,28.50
2018-07-16T11:33:44.898Z,27.71
2018-07-16T11:34:44.957Z,26.23
2018-07-16T11:35:44.958Z,26.42
2018-07-16T11:36:44.974Z,26.81
2018-07-16T11:37:44.857Z,27.11
2018-07-16T11:38:44.941Z,29.17
2018-07-16T11:39:44.842Z,27.81
2018-07-16T11:40:44.899Z,28.41
2018-07-16T11:41:44.826Z,28.23
2018-07-16T11:42:44.905Z,26.97
2018-07-16T11:43:44.888Z,27.75
2018-07-16T11:44:44.924Z,24.52
2018-07-16T11:45:44.804Z,25.01
2018-07-16T11:46:44.948Z,26.48
2018-07-16T11:47:44.810Z,25.50
2018-07-16T11:48:44.852Z,26.88
2018-07-16T11:49:44.789Z,24.53
2018-07-16T11:50:44.765Z,22.33
2018-07-16T11:51:44.737Z,24.07
2018-07-16T11:52:44.778Z,26.11
2018-07-16T11:53:44.719Z,26.91
2018-07-16T11:54:44.793Z,26.42
2018-07-16T11:55:44.701Z,25.52
2018-07-16T11:56:44.707Z,25.44
2018-07-16T11:57:44.684Z,26.82
2018-07-16T11:58:44.728Z,25.84
2018-07-16T11:59:44.668Z,26.84
2018-07-16T12:00:44.736Z,28.03
2018-07-16T12:01:44.700Z,25.59
2018-07-16T12:02:44.749Z,24.79
2018-07-16T12:03:44.640Z,25.77
2018-07-16T12:04:44.662Z,24.79
2018-07-16T12:05:44.643Z,25.38
2018-07-16T12:06:44.675Z,24.98
2018-07-16T12:07:44.596Z,27.05
2018-07-16T12:08:44.688Z,27.06
2018-07-16T12:09:44.646Z,25.68
2018-07-16T12:10:44.600Z,25.79
2018-07-16T12:11:44.560Z,25.40
2018-07-16T12:12:44.711Z,24.43
2018-07-16T12:13:44.549Z,25.12
2018-07-16T12:14:44.628Z,24.43
2018-07-16T12:15:44.527Z,22.64
2018-07-16T12:16:44.541Z,24.52
2018-07-16T12:17:44.543Z,24.71
2018-07-16T12:18:44.558Z,25.71
2018-07-16T12:19:44.495Z,24.73
2018-07-16T12:20:44.570Z,25.22
2018-07-16T12:21:44.478Z,24.63
2018-07-16T12:22:44.479Z,24.23
2018-07-16T12:23:44.461Z,23.26
2018-07-16T12:24:44.495Z,24.74
2018-07-16T12:25:44.446Z,21.50
2018-07-16T12:26:44.504Z,22.28
2018-07-16T12:27:44.420Z,22.78
2018-07-16T12:28:44.525Z,21.29
2018-07-16T12:29:44.411Z,21.67
2018-07-16T12:30:44.437Z,22.36
2018-07-16T12:31:44.396Z,22.56
2018-07-16T12:32:44.495Z,23.44
2018-07-16T12:33:44.380Z,23.95
2018-07-16T12:34:44.463Z,21.57
2018-07-16T12:35:44.364Z,23.15
2018-07-16T12:36:44.371Z,23.54
2018-07-16T12:37:44.353Z,24.24
2018-07-16T12:38:44.392Z,23.85
2018-07-16T12:39:44.331Z,24.24
2018-07-16T12:40:44.404Z,24.24
2018-07-16T12:41:44.360Z,22.47
2018-07-16T12:42:44.426Z,21.68
2018-07-16T12:43:44.302Z,21.98
2018-07-16T12:44:44.332Z,20.41
2018-07-16T12:45:44.285Z,22.86
2018-07-16T12:46:44.345Z,22.67
2018-07-16T12:47:44.274Z,23.64
2018-07-16T12:48:44.359Z,21.87
2018-07-16T12:49:44.256Z,23.35
2018-07-16T12:50:44.272Z,23.05
2018-07-16T12:51:44.239Z,21.57
2018-07-16T12:52:44.288Z,21.86
2018-07-16T12:53:44.227Z,22.05
2018-07-16T12:54:44.300Z,20.86
2018-07-16T12:55:44.210Z,24.99
2018-07-16T12:56:44.317Z,23.43
2018-07-16T12:57:44.193Z,23.54
2018-07-16T12:58:44.227Z,24.15
2018-07-16T12:59:44.179Z,22.47
2018-07-16T13:00:44.240Z,21.39
2018-07-16T13:01:44.168Z,21.30
2018-07-16T13:02:44.254Z,21.90
2018-07-16T13:03:44.150Z,21.41
2018-07-16T13:04:44.169Z,20.81
2018-07-16T13:05:44.209Z,21.42
2018-07-16T13:06:44.184Z,21.41
2018-07-16T13:07:44.119Z,20.81
2018-07-16T13:08:44.195Z,20.62
2018-07-16T13:09:44.104Z,21.70
2018-07-16T13:10:44.207Z,22.30
2018-07-16T13:11:44.088Z,20.42
2018-07-16T13:12:44.120Z,21.41
2018-07-16T13:13:44.092Z,22.30
2018-07-16T13:14:44.134Z,21.91
2018-07-16T13:15:44.075Z,21.32
2018-07-16T13:16:44.149Z,21.02
2018-07-16T13:17:44.046Z,20.72
2018-07-16T13:18:44.061Z,20.72
2018-07-16T13:19:44.035Z,21.50
2018-07-16T13:20:44.069Z,21.10
2018-07-16T13:21:44.049Z,20.31
2018-07-16T13:22:44.081Z,19.32
2018-07-16T13:23:44.018Z,19.92
2018-07-16T13:24:44.106Z,19.81
2018-07-16T13:25:43.989Z,21.68